LTBY

Details ICAO LTBY (AOE)
Name ANADOLU
Region Turkey
Timezone Europe/Istanbul (UTC+3.0)
Plans Departing 15
Arriving 17
Stats Elevation 2,588 ft / 789 m (AMSL)
Location 39.809907° 30.519393°
Runways 1
Magnetic Variation 5.439° E
Sunrise 2017-12-14 05:12:43 UTC / 2017-12-14 08:12:43 Local
Sunset 2017-12-14 14:35:13 UTC / 2017-12-14 17:35:13 Local
Advertisement - Login to hide

Runways

ID Width Length Bearing (true) Bearing (mag) Surface Threshold Offset Overrun Length
09 98 ft / 30 m 8,250 ft / 2,515 m 92.76° 87.32° Asphalt 0 ft / 0 m 97 ft / 30 m
27 98 ft / 30 m 8,250 ft / 2,515 m 272.78° 267.34° Asphalt 0 ft / 0 m 95 ft / 29 m

Map

Weather


0- 5 10 15 20 25 30 35+ Temperature / ° C

Clouds and Precipitation
Forecast for 2017-12-14 12:00 UTC. Updated 28 minutes ago

Ground ~20,000 ft ~40,000 ft Winds

METAR

LTBY 140650Z VRB02KT 0300 R09/0200U R27/0225U FG VV002 00/00 Q1018

TAF

Not found

Frequencies

Tower 121.90 MHz TWR
Tower 123.75 MHz TWR
Warning: Do not use this data for real-world aviation or navigation. No guarantee of current accuracy is given.